createdAt,value
2019-03-24T00:01:41.117Z,8.60
2019-03-24T00:03:57.370Z,8.60
2019-03-24T00:06:17.140Z,8.50
2019-03-24T00:08:36.951Z,8.50
2019-03-24T00:10:56.764Z,8.50
2019-03-24T00:13:16.770Z,8.50
2019-03-24T00:15:36.560Z,8.50
2019-03-24T00:17:56.566Z,8.40
2019-03-24T00:20:16.547Z,8.40
2019-03-24T00:22:36.511Z,8.40
2019-03-24T00:24:56.965Z,8.30
2019-03-24T00:27:16.673Z,8.30
2019-03-24T00:29:36.508Z,8.30
2019-03-24T00:31:56.961Z,8.30
2019-03-24T00:34:17.143Z,8.20
2019-03-24T00:36:37.256Z,8.10
2019-03-24T00:38:57.119Z,8.10
2019-03-24T00:41:16.858Z,8.10
2019-03-24T00:43:36.678Z,8.10
2019-03-24T00:45:56.493Z,8.10
2019-03-24T00:48:16.231Z,8.10
2019-03-24T00:50:36.069Z,8.10
2019-03-24T00:52:55.885Z,8.10
2019-03-24T00:55:16.095Z,8.20
2019-03-24T00:57:37.636Z,8.10
2019-03-24T00:59:57.730Z,8.10
2019-03-24T01:02:17.701Z,8.10
2019-03-24T01:04:37.948Z,8.00
2019-03-24T01:06:57.967Z,8.00
2019-03-24T01:09:17.832Z,8.00
2019-03-24T01:11:38.000Z,7.90
2019-03-24T01:13:57.876Z,7.90
2019-03-24T01:16:17.803Z,7.90
2019-03-24T01:18:37.729Z,7.90
2019-03-24T01:20:57.879Z,7.90
2019-03-24T01:23:17.876Z,7.80
2019-03-24T01:25:37.697Z,7.80
2019-03-24T01:27:57.614Z,7.80
2019-03-24T01:30:17.788Z,7.70
2019-03-24T01:32:37.692Z,7.70
2019-03-24T01:34:57.526Z,7.70
2019-03-24T01:37:17.322Z,7.70
2019-03-24T01:39:37.096Z,7.60
2019-03-24T01:41:56.884Z,7.60
2019-03-24T01:44:16.654Z,7.50
2019-03-24T01:46:36.418Z,7.50
2019-03-24T01:48:56.176Z,7.50
2019-03-24T01:51:16.121Z,7.40
2019-03-24T01:53:36.198Z,7.40
2019-03-24T01:55:55.923Z,7.30
2019-03-24T01:58:15.785Z,7.30
2019-03-24T02:00:35.712Z,7.20
2019-03-24T02:02:55.957Z,7.20
2019-03-24T02:05:15.909Z,7.20
2019-03-24T02:07:35.819Z,7.20
2019-03-24T02:09:55.716Z,7.00
2019-03-24T02:12:15.818Z,7.00
2019-03-24T02:14:35.736Z,6.90
2019-03-24T02:16:55.609Z,6.80
2019-03-24T02:19:15.482Z,6.70
2019-03-24T02:21:35.291Z,6.70
2019-03-24T02:23:55.079Z,6.70
2019-03-24T02:26:14.950Z,6.60
2019-03-24T02:28:34.494Z,6.50
2019-03-24T02:30:54.301Z,6.50
2019-03-24T02:33:14.075Z,6.40
2019-03-24T02:35:33.741Z,6.40
2019-03-24T02:37:53.651Z,6.30
2019-03-24T02:40:13.544Z,6.30
2019-03-24T02:42:33.664Z,6.20
2019-03-24T02:44:53.440Z,6.10
2019-03-24T02:47:13.152Z,6.00
2019-03-24T02:49:32.878Z,5.90
2019-03-24T02:51:52.646Z,5.80
2019-03-24T02:54:12.592Z,5.70
2019-03-24T02:56:32.514Z,5.60
2019-03-24T02:58:52.456Z,5.50
2019-03-24T03:01:12.926Z,5.50
2019-03-24T03:03:33.111Z,5.40
2019-03-24T03:05:52.875Z,5.40
2019-03-24T03:08:12.623Z,5.40
2019-03-24T03:10:32.324Z,5.40
2019-03-24T03:12:52.090Z,5.40
2019-03-24T03:15:12.440Z,5.50
2019-03-24T03:17:32.278Z,5.40
2019-03-24T03:19:53.932Z,5.40
2019-03-24T03:22:13.862Z,5.40
2019-03-24T03:24:33.554Z,5.40
2019-03-24T03:26:53.361Z,5.30
2019-03-24T03:29:13.103Z,5.30
2019-03-24T03:31:32.846Z,5.20
2019-03-24T03:33:52.697Z,5.20
2019-03-24T03:36:12.933Z,5.10
2019-03-24T03:38:32.587Z,5.10
2019-03-24T03:40:52.471Z,5.00
2019-03-24T03:43:12.888Z,5.00
2019-03-24T03:45:32.963Z,4.90
2019-03-24T03:47:53.547Z,4.90
2019-03-24T03:50:13.558Z,5.00
2019-03-24T03:52:33.486Z,5.00
2019-03-24T03:54:53.273Z,4.90
2019-03-24T03:57:13.218Z,4.80
2019-03-24T03:59:33.198Z,4.80
2019-03-24T04:01:53.011Z,4.70
2019-03-24T04:04:12.988Z,4.60
2019-03-24T04:06:32.882Z,4.60
2019-03-24T04:08:52.758Z,4.60
2019-03-24T04:11:12.553Z,4.60
2019-03-24T04:13:32.249Z,4.50
2019-03-24T04:15:51.924Z,4.50
2019-03-24T04:18:11.659Z,4.50
2019-03-24T04:20:31.465Z,4.50
2019-03-24T04:22:51.246Z,4.50
2019-03-24T04:25:11.057Z,4.50
2019-03-24T04:27:30.887Z,4.40
2019-03-24T04:29:51.467Z,4.40
2019-03-24T04:32:11.326Z,4.50
2019-03-24T04:34:31.021Z,4.50
2019-03-24T04:36:50.795Z,4.50
2019-03-24T04:39:10.500Z,4.50
2019-03-24T04:41:30.324Z,4.50
2019-03-24T04:43:50.229Z,4.40
2019-03-24T04:46:10.193Z,4.50
2019-03-24T04:48:30.232Z,4.40
2019-03-24T04:50:50.256Z,4.30
2019-03-24T04:53:10.050Z,4.20
2019-03-24T04:55:29.816Z,4.20
2019-03-24T04:57:49.717Z,4.20
2019-03-24T05:00:10.554Z,4.20
2019-03-24T05:02:30.308Z,4.10
2019-03-24T05:04:50.362Z,4.20
2019-03-24T05:07:10.098Z,4.20
2019-03-24T05:09:29.986Z,4.10
2019-03-24T05:11:50.068Z,4.10
2019-03-24T05:14:09.828Z,4.20
2019-03-24T05:16:29.832Z,4.20
2019-03-24T05:18:50.050Z,4.10
2019-03-24T05:21:09.792Z,4.20
2019-03-24T05:23:29.653Z,4.20
2019-03-24T05:25:49.339Z,4.20
2019-03-24T05:28:09.200Z,4.20
2019-03-24T05:30:29.013Z,4.20
2019-03-24T05:32:48.736Z,4.20
2019-03-24T05:35:08.764Z,4.20
2019-03-24T05:37:28.608Z,4.20
2019-03-24T05:39:48.557Z,4.20
2019-03-24T05:42:08.516Z,4.20
2019-03-24T05:44:28.506Z,4.20
2019-03-24T05:46:48.536Z,4.30
2019-03-24T05:49:08.711Z,4.30
2019-03-24T05:51:28.510Z,4.30
2019-03-24T05:53:48.776Z,4.40
2019-03-24T05:56:08.434Z,4.40
2019-03-24T05:58:28.118Z,4.40
2019-03-24T06:00:47.934Z,4.50
2019-03-24T06:03:07.702Z,4.50
2019-03-24T06:05:27.705Z,4.50
2019-03-24T06:07:47.442Z,4.60
2019-03-24T06:10:07.401Z,4.60
2019-03-24T06:12:27.512Z,4.60
2019-03-24T06:14:47.293Z,4.70
2019-03-24T06:17:07.374Z,4.80
2019-03-24T06:19:27.412Z,4.80
2019-03-24T06:21:47.096Z,4.80
2019-03-24T06:24:06.844Z,4.90
2019-03-24T06:26:26.665Z,4.90
2019-03-24T06:28:46.527Z,4.90
2019-03-24T06:31:06.472Z,4.90
2019-03-24T06:33:26.382Z,5.00
2019-03-24T06:35:46.480Z,5.10
2019-03-24T06:38:06.308Z,5.20
2019-03-24T06:40:25.930Z,5.20
2019-03-24T06:42:45.710Z,5.20
2019-03-24T06:45:06.266Z,5.30
2019-03-24T06:47:26.263Z,5.30
2019-03-24T06:49:45.877Z,5.40
2019-03-24T06:52:05.559Z,5.40
2019-03-24T06:54:25.528Z,5.40
2019-03-24T06:56:45.274Z,5.50
2019-03-24T06:59:05.148Z,5.60
2019-03-24T07:01:25.065Z,5.70
2019-03-24T07:03:44.740Z,5.80
2019-03-24T07:06:04.525Z,5.90
2019-03-24T07:08:24.292Z,5.90
2019-03-24T07:10:44.127Z,6.00
2019-03-24T07:13:03.962Z,6.10
2019-03-24T07:15:23.874Z,6.10
2019-03-24T07:17:43.747Z,6.20
2019-03-24T07:20:04.878Z,6.20
2019-03-24T07:22:25.104Z,6.20
2019-03-24T07:24:45.018Z,6.40
2019-03-24T07:27:05.198Z,6.60
2019-03-24T07:29:25.046Z,6.70
2019-03-24T07:31:44.837Z,6.80
2019-03-24T07:34:04.600Z,7.00
2019-03-24T07:36:24.291Z,7.20
2019-03-24T07:38:44.208Z,7.30
2019-03-24T07:41:03.955Z,7.40
2019-03-24T07:43:23.670Z,7.70
2019-03-24T07:45:43.502Z,7.90
2019-03-24T07:48:03.274Z,8.00
2019-03-24T07:50:22.983Z,8.10
2019-03-24T07:52:42.753Z,8.10
2019-03-24T07:55:05.437Z,8.20
2019-03-24T07:57:25.566Z,8.10
2019-03-24T07:59:45.339Z,8.20
2019-03-24T08:02:05.186Z,8.00
2019-03-24T08:04:24.905Z,8.30
2019-03-24T08:06:44.670Z,8.40
2019-03-24T08:09:05.522Z,8.60
2019-03-24T08:11:25.285Z,8.90
2019-03-24T08:13:53.682Z,9.10
2019-03-24T08:16:06.882Z,9.30
2019-03-24T08:18:30.067Z,9.60
2019-03-24T08:20:48.392Z,9.80
2019-03-24T08:23:08.202Z,9.90
2019-03-24T08:25:27.838Z,10.00
2019-03-24T08:27:47.868Z,10.30
2019-03-24T08:30:09.211Z,10.60
2019-03-24T08:32:29.501Z,10.80
2019-03-24T08:34:49.504Z,11.10
2019-03-24T08:37:09.366Z,11.20
2019-03-24T08:39:29.207Z,11.30
2019-03-24T08:41:49.286Z,11.50
2019-03-24T08:44:09.353Z,11.50
2019-03-24T08:46:29.423Z,11.50
2019-03-24T08:48:49.728Z,11.60
2019-03-24T08:51:09.615Z,11.80
2019-03-24T08:53:29.376Z,11.60
2019-03-24T08:55:49.050Z,11.70
2019-03-24T08:58:08.783Z,11.50
2019-03-24T09:00:30.852Z,11.20
2019-03-24T09:02:50.277Z,11.10
2019-03-24T09:05:10.266Z,11.10
2019-03-24T09:07:32.272Z,11.40
2019-03-24T09:09:52.314Z,11.60
2019-03-24T09:12:12.317Z,11.70
2019-03-24T09:14:32.048Z,11.90
2019-03-24T09:16:51.736Z,11.90
2019-03-24T09:19:11.620Z,12.00
2019-03-24T09:21:31.360Z,11.90
2019-03-24T09:23:51.182Z,12.20
2019-03-24T09:26:10.961Z,12.20
2019-03-24T09:28:30.818Z,12.10
2019-03-24T09:30:50.602Z,12.30
2019-03-24T09:33:10.278Z,12.40
2019-03-24T09:35:30.164Z,12.30
2019-03-24T09:37:50.111Z,12.50
2019-03-24T09:40:15.702Z,12.60
2019-03-24T09:42:35.572Z,12.70
2019-03-24T09:44:55.358Z,12.70
2019-03-24T09:47:15.066Z,12.70
2019-03-24T09:49:34.827Z,12.80
2019-03-24T09:51:54.658Z,13.00
2019-03-24T09:54:14.500Z,13.10
2019-03-24T09:56:34.483Z,12.80
2019-03-24T09:58:54.289Z,13.10
2019-03-24T10:01:15.218Z,13.40
2019-03-24T10:03:35.233Z,13.70
2019-03-24T10:05:55.192Z,14.00
2019-03-24T10:08:15.210Z,14.10
2019-03-24T10:10:34.997Z,14.30
2019-03-24T10:12:54.819Z,14.20
2019-03-24T10:15:14.582Z,14.20
2019-03-24T10:17:34.391Z,14.60
2019-03-24T10:19:54.158Z,14.70
2019-03-24T10:22:13.918Z,14.70
2019-03-24T10:24:33.695Z,14.50
2019-03-24T10:26:53.453Z,14.30
2019-03-24T10:29:13.289Z,13.80
2019-03-24T10:31:33.059Z,13.50
2019-03-24T10:33:52.839Z,13.20
2019-03-24T10:36:12.604Z,13.00
2019-03-24T10:38:32.361Z,13.20
2019-03-24T10:40:52.267Z,13.40
2019-03-24T10:43:12.148Z,13.60
2019-03-24T10:45:32.083Z,13.70
2019-03-24T10:47:52.068Z,13.90
2019-03-24T10:50:14.302Z,13.70
2019-03-24T10:52:34.309Z,13.40
2019-03-24T10:54:54.239Z,13.30
2019-03-24T10:57:14.120Z,13.50
2019-03-24T10:59:34.040Z,13.80
2019-03-24T11:01:53.954Z,13.80
2019-03-24T11:04:15.893Z,13.90
2019-03-24T11:06:35.780Z,14.10
2019-03-24T11:08:55.683Z,14.20
2019-03-24T11:11:15.546Z,13.90
2019-03-24T11:13:35.297Z,13.50
2019-03-24T11:15:55.134Z,13.00
2019-03-24T11:18:14.963Z,12.90
2019-03-24T11:20:34.635Z,13.10
2019-03-24T11:22:54.491Z,13.20
2019-03-24T11:25:14.111Z,13.20
2019-03-24T11:27:33.994Z,13.30
2019-03-24T11:29:53.679Z,13.40
2019-03-24T11:32:13.405Z,13.60
2019-03-24T11:34:33.350Z,13.50
2019-03-24T11:36:53.532Z,13.40
2019-03-24T11:39:13.380Z,13.50
2019-03-24T11:41:33.154Z,13.90
2019-03-24T11:43:53.215Z,14.00
2019-03-24T11:46:13.276Z,14.10
2019-03-24T11:48:33.119Z,14.20
2019-03-24T11:50:53.052Z,13.80
2019-03-24T11:53:13.010Z,13.80
2019-03-24T11:55:32.962Z,14.10
2019-03-24T11:57:52.952Z,14.10
2019-03-24T12:00:15.946Z,13.90
2019-03-24T12:02:36.160Z,14.10
2019-03-24T12:04:56.151Z,14.20
2019-03-24T12:07:16.007Z,14.10
2019-03-24T12:09:36.110Z,14.10
2019-03-24T12:11:55.962Z,14.40
2019-03-24T12:14:15.878Z,14.60
2019-03-24T12:16:35.981Z,14.50
2019-03-24T12:18:55.686Z,14.20
2019-03-24T12:21:15.357Z,14.20
2019-03-24T12:23:35.096Z,14.50
2019-03-24T12:25:54.749Z,14.50
2019-03-24T12:28:14.471Z,14.60
2019-03-24T12:30:34.253Z,14.40
2019-03-24T12:32:54.099Z,14.80
2019-03-24T12:35:13.854Z,14.90
2019-03-24T12:37:33.616Z,15.20
2019-03-24T12:39:53.540Z,15.40
2019-03-24T12:42:13.357Z,15.20
2019-03-24T12:44:33.306Z,15.00
2019-03-24T12:46:53.511Z,14.90
2019-03-24T12:49:13.813Z,15.10
2019-03-24T12:51:33.709Z,15.50
2019-03-24T12:53:53.682Z,15.60
2019-03-24T12:56:13.789Z,15.60
2019-03-24T12:58:34.287Z,15.90
2019-03-24T13:00:54.079Z,16.00
2019-03-24T13:03:13.927Z,16.00
2019-03-24T13:05:33.748Z,15.90
2019-03-24T13:07:59.499Z,16.00
2019-03-24T13:10:19.372Z,16.10
2019-03-24T13:12:39.366Z,15.80
2019-03-24T13:14:59.414Z,16.00
2019-03-24T13:17:19.851Z,16.10
2019-03-24T13:19:40.390Z,15.60
2019-03-24T13:22:00.360Z,15.50
2019-03-24T13:24:20.290Z,15.40
2019-03-24T13:26:40.280Z,15.40
2019-03-24T13:28:59.970Z,15.40
2019-03-24T13:31:19.782Z,15.50
2019-03-24T13:33:39.538Z,15.60
2019-03-24T13:36:06.830Z,15.60
2019-03-24T13:38:26.872Z,15.50
2019-03-24T13:40:46.762Z,15.60
2019-03-24T13:43:06.744Z,15.90
2019-03-24T13:45:26.686Z,16.00
2019-03-24T13:47:46.674Z,16.20
2019-03-24T13:50:07.105Z,16.30
2019-03-24T13:52:27.105Z,16.40
2019-03-24T13:54:47.103Z,16.60
2019-03-24T13:57:06.849Z,16.00
2019-03-24T13:59:26.664Z,15.90
2019-03-24T14:01:46.406Z,15.90
2019-03-24T14:04:06.351Z,15.80
2019-03-24T14:06:26.062Z,15.30
2019-03-24T14:08:45.727Z,15.30
2019-03-24T14:11:05.533Z,15.10
2019-03-24T14:13:25.259Z,15.20
2019-03-24T14:15:45.129Z,15.30
2019-03-24T14:18:04.925Z,15.00
2019-03-24T14:20:24.675Z,14.30
2019-03-24T14:22:44.454Z,14.20
2019-03-24T14:25:05.799Z,14.20
2019-03-24T14:27:25.581Z,14.20
2019-03-24T14:29:45.492Z,13.90
2019-03-24T14:32:05.429Z,13.70
2019-03-24T14:34:25.451Z,13.60
2019-03-24T14:36:45.369Z,13.50
2019-03-24T14:39:05.698Z,13.60
2019-03-24T14:41:25.778Z,13.60
2019-03-24T14:43:45.757Z,13.60
2019-03-24T14:46:05.610Z,13.70
2019-03-24T14:48:25.429Z,13.70
2019-03-24T14:50:53.885Z,13.70
2019-03-24T14:53:07.088Z,13.70
2019-03-24T14:55:26.865Z,13.60
2019-03-24T14:57:46.676Z,13.70
2019-03-24T15:00:08.029Z,13.50
2019-03-24T15:02:28.088Z,13.40
2019-03-24T15:04:47.908Z,13.20
2019-03-24T15:07:07.688Z,13.10
2019-03-24T15:09:27.502Z,13.00
2019-03-24T15:11:47.263Z,12.90
2019-03-24T15:14:06.989Z,12.80
2019-03-24T15:16:26.694Z,12.70
2019-03-24T15:18:46.572Z,12.60
2019-03-24T15:21:06.437Z,12.60
2019-03-24T15:23:26.244Z,12.50
2019-03-24T15:25:46.012Z,12.40
2019-03-24T15:28:05.870Z,12.50
2019-03-24T15:30:25.678Z,12.40
2019-03-24T15:32:45.631Z,12.50
2019-03-24T15:35:06.409Z,12.50
2019-03-24T15:37:26.424Z,12.50
2019-03-24T15:39:46.588Z,12.40
2019-03-24T15:42:06.629Z,12.50
2019-03-24T15:44:27.071Z,12.40
2019-03-24T15:46:46.963Z,12.30
2019-03-24T15:49:06.896Z,12.30
2019-03-24T15:51:26.692Z,12.20
2019-03-24T15:53:46.354Z,12.10
2019-03-24T15:56:06.118Z,11.90
2019-03-24T15:58:25.793Z,11.90
2019-03-24T16:00:46.370Z,11.90
2019-03-24T16:03:06.338Z,11.80
2019-03-24T16:05:26.024Z,11.80
2019-03-24T16:07:45.750Z,11.80
2019-03-24T16:10:05.899Z,11.70
2019-03-24T16:12:25.661Z,11.70
2019-03-24T16:14:45.496Z,11.60
2019-03-24T16:17:05.167Z,11.70
2019-03-24T16:19:24.879Z,11.60
2019-03-24T16:21:44.643Z,11.60
2019-03-24T16:24:04.354Z,11.50
2019-03-24T16:26:24.234Z,11.50
2019-03-24T16:28:44.158Z,11.40
2019-03-24T16:31:04.094Z,11.30
2019-03-24T16:33:23.981Z,11.10
2019-03-24T16:35:44.000Z,11.00
2019-03-24T16:38:03.956Z,11.00
2019-03-24T16:40:23.854Z,10.80
2019-03-24T16:42:43.843Z,10.80
2019-03-24T16:45:04.894Z,10.70
2019-03-24T16:47:24.882Z,10.80
2019-03-24T16:49:44.637Z,10.70
2019-03-24T16:52:04.440Z,10.70
2019-03-24T16:54:24.095Z,10.70
2019-03-24T16:56:43.995Z,10.80
2019-03-24T16:59:03.719Z,10.80
2019-03-24T17:01:23.632Z,10.90
2019-03-24T17:03:43.339Z,10.90
2019-03-24T17:06:03.416Z,10.90
2019-03-24T17:08:23.504Z,10.90
2019-03-24T17:10:43.250Z,10.90
2019-03-24T17:13:02.964Z,10.80
2019-03-24T17:15:22.727Z,10.70
2019-03-24T17:17:42.622Z,10.60
2019-03-24T17:20:07.849Z,10.50
2019-03-24T17:22:30.093Z,10.40
2019-03-24T17:24:49.395Z,10.30
2019-03-24T17:27:09.111Z,10.20
2019-03-24T17:29:28.854Z,10.10
2019-03-24T17:31:48.714Z,10.00
2019-03-24T17:34:08.820Z,9.80
2019-03-24T17:36:28.655Z,9.80
2019-03-24T17:38:48.496Z,9.70
2019-03-24T17:41:08.317Z,9.70
2019-03-24T17:43:28.333Z,9.70
2019-03-24T17:45:48.340Z,9.50
2019-03-24T17:48:08.246Z,9.50
2019-03-24T17:50:28.152Z,9.30
2019-03-24T17:52:48.096Z,9.20
2019-03-24T17:55:09.059Z,9.10
2019-03-24T17:57:29.197Z,9.10
2019-03-24T17:59:48.989Z,9.00
2019-03-24T18:02:14.308Z,9.00
2019-03-24T18:04:30.407Z,8.90
2019-03-24T18:06:50.106Z,8.80
2019-03-24T18:09:09.874Z,8.80
2019-03-24T18:11:29.516Z,8.70
2019-03-24T18:13:49.330Z,8.50
2019-03-24T18:16:09.127Z,8.40
2019-03-24T18:18:28.827Z,8.40
2019-03-24T18:20:48.658Z,8.30
2019-03-24T18:23:08.587Z,8.20
2019-03-24T18:25:28.451Z,8.20
2019-03-24T18:27:48.198Z,8.10
2019-03-24T18:30:10.349Z,8.00
2019-03-24T18:32:30.012Z,8.00
2019-03-24T18:34:49.834Z,8.00
2019-03-24T18:37:09.836Z,7.90
2019-03-24T18:39:29.625Z,7.90
2019-03-24T18:41:49.452Z,7.80
2019-03-24T18:44:09.285Z,7.70
2019-03-24T18:46:29.320Z,7.60
2019-03-24T18:48:49.410Z,7.50
2019-03-24T18:51:09.233Z,7.40
2019-03-24T18:53:29.086Z,7.20
2019-03-24T18:55:48.906Z,7.20
2019-03-24T18:58:08.618Z,7.00
2019-03-24T19:00:28.317Z,6.90
2019-03-24T19:02:47.976Z,6.70
2019-03-24T19:05:08.529Z,6.60
2019-03-24T19:07:28.487Z,6.50
2019-03-24T19:09:48.272Z,6.50
2019-03-24T19:12:08.242Z,6.40
2019-03-24T19:14:28.020Z,6.40
2019-03-24T19:16:47.771Z,6.20
2019-03-24T19:19:07.545Z,6.20
2019-03-24T19:21:27.441Z,6.20
2019-03-24T19:23:47.320Z,6.10
2019-03-24T19:26:07.058Z,6.10
2019-03-24T19:28:26.919Z,6.10
2019-03-24T19:30:46.909Z,6.00
2019-03-24T19:33:07.123Z,6.00
2019-03-24T19:35:27.368Z,5.90
2019-03-24T19:37:48.336Z,5.80
2019-03-24T19:40:30.072Z,5.70
2019-03-24T19:42:50.285Z,5.60
2019-03-24T19:45:10.415Z,5.60
2019-03-24T19:47:30.871Z,5.50
2019-03-24T19:49:50.696Z,5.50
2019-03-24T19:52:10.489Z,5.40
2019-03-24T19:54:30.269Z,5.40
2019-03-24T19:56:50.071Z,5.30
2019-03-24T19:59:09.897Z,5.20
2019-03-24T20:01:29.937Z,5.20
2019-03-24T20:03:49.906Z,5.10
2019-03-24T20:06:09.914Z,5.00
2019-03-24T20:08:29.805Z,5.00
2019-03-24T20:10:49.662Z,4.90
2019-03-24T20:13:09.507Z,4.90
2019-03-24T20:15:29.363Z,4.90
2019-03-24T20:17:49.569Z,4.90
2019-03-24T20:20:09.883Z,4.90
2019-03-24T20:22:29.953Z,4.70
2019-03-24T20:24:49.677Z,4.60
2019-03-24T20:27:09.429Z,4.60
2019-03-24T20:29:29.308Z,4.50
2019-03-24T20:31:48.988Z,4.40
2019-03-24T20:34:08.866Z,4.40
2019-03-24T20:36:28.541Z,4.40
2019-03-24T20:38:48.409Z,4.40
2019-03-24T20:41:08.150Z,4.30
2019-03-24T20:43:27.974Z,4.20
2019-03-24T20:45:47.676Z,4.20
2019-03-24T20:48:07.546Z,4.20
2019-03-24T20:50:27.503Z,4.10
2019-03-24T20:52:47.353Z,4.10
2019-03-24T20:55:07.573Z,4.20
2019-03-24T20:57:27.622Z,4.20
2019-03-24T20:59:47.620Z,4.00
2019-03-24T21:02:07.786Z,3.90
2019-03-24T21:04:27.702Z,3.90
2019-03-24T21:06:47.540Z,3.80
2019-03-24T21:09:08.005Z,3.80
2019-03-24T21:11:27.998Z,3.80
2019-03-24T21:13:47.645Z,3.80
2019-03-24T21:16:07.366Z,3.80
2019-03-24T21:18:27.050Z,3.80
2019-03-24T21:20:46.980Z,3.80
2019-03-24T21:23:07.389Z,3.70
2019-03-24T21:25:27.073Z,3.70
2019-03-24T21:27:46.862Z,3.70
2019-03-24T21:30:08.109Z,3.60
2019-03-24T21:32:27.884Z,3.50
2019-03-24T21:34:47.678Z,3.40
2019-03-24T21:37:07.402Z,3.40
2019-03-24T21:39:27.305Z,3.30
2019-03-24T21:41:47.093Z,3.20
2019-03-24T21:44:06.969Z,3.20
2019-03-24T21:46:26.849Z,3.20
2019-03-24T21:48:46.677Z,3.20
2019-03-24T21:51:06.669Z,3.20
2019-03-24T21:53:26.648Z,3.10
2019-03-24T21:55:46.789Z,3.10
2019-03-24T21:58:06.631Z,3.00
2019-03-24T22:00:33.192Z,3.00
2019-03-24T22:02:52.899Z,3.00
2019-03-24T22:05:12.707Z,3.10
2019-03-24T22:07:32.576Z,3.00
2019-03-24T22:09:52.528Z,3.00
2019-03-24T22:12:12.479Z,2.90
2019-03-24T22:14:32.455Z,2.90
2019-03-24T22:16:52.436Z,2.80
2019-03-24T22:19:12.501Z,2.80
2019-03-24T22:21:32.306Z,2.80
2019-03-24T22:23:52.762Z,2.80
2019-03-24T22:26:12.770Z,2.80
2019-03-24T22:28:32.558Z,2.80
2019-03-24T22:30:52.296Z,2.70
2019-03-24T22:33:12.033Z,2.70
2019-03-24T22:35:31.817Z,2.60
2019-03-24T22:37:51.483Z,2.60
2019-03-24T22:40:11.672Z,2.50
2019-03-24T22:42:31.798Z,2.50
2019-03-24T22:44:51.519Z,2.50
2019-03-24T22:47:11.367Z,2.40
2019-03-24T22:49:31.135Z,2.40
2019-03-24T22:51:50.931Z,2.30
2019-03-24T22:54:10.722Z,2.30
2019-03-24T22:56:30.544Z,2.20
2019-03-24T22:58:50.416Z,2.20
2019-03-24T23:01:11.045Z,2.10
2019-03-24T23:03:31.387Z,2.10
2019-03-24T23:05:51.267Z,2.00
2019-03-24T23:08:11.171Z,1.90
2019-03-24T23:10:31.230Z,1.90
2019-03-24T23:12:51.200Z,1.90
2019-03-24T23:15:11.036Z,1.80
2019-03-24T23:17:30.835Z,1.80
2019-03-24T23:19:50.576Z,1.80
2019-03-24T23:22:10.423Z,1.70
2019-03-24T23:24:30.201Z,1.70
2019-03-24T23:26:49.933Z,1.70
2019-03-24T23:29:09.653Z,1.60
2019-03-24T23:31:29.477Z,1.60
2019-03-24T23:33:49.712Z,1.60
2019-03-24T23:36:09.729Z,1.60
2019-03-24T23:38:29.773Z,1.60
2019-03-24T23:40:50.078Z,1.60
2019-03-24T23:43:09.864Z,1.60
2019-03-24T23:45:29.715Z,1.60
2019-03-24T23:47:49.508Z,1.60
2019-03-24T23:50:09.231Z,1.60
2019-03-24T23:52:29.052Z,1.60
2019-03-24T23:54:48.955Z,1.60
2019-03-24T23:57:08.992Z,1.60
2019-03-24T23:59:28.895Z,1.60
